createdAt,value
2023-02-11T00:01:37.274Z,28.63
2023-02-11T00:04:06.285Z,26.77
2023-02-11T00:06:35.334Z,33.53
2023-02-11T00:09:02.295Z,38.15
2023-02-11T00:11:32.659Z,35.22
2023-02-11T00:14:03.480Z,32.65
2023-02-11T00:16:31.820Z,34.05
2023-02-11T00:19:02.972Z,31.88
2023-02-11T00:21:29.644Z,36.15
2023-02-11T00:23:58.622Z,33.72
2023-02-11T00:26:33.036Z,30.98
2023-02-11T00:29:00.883Z,31.30
2023-02-11T00:31:28.294Z,31.10
2023-02-11T00:33:55.353Z,31.73
2023-02-11T00:36:25.914Z,28.92
2023-02-11T00:38:54.660Z,29.15
2023-02-11T00:41:22.808Z,31.23
2023-02-11T00:43:50.442Z,28.55
2023-02-11T00:46:17.115Z,29.65
2023-02-11T00:48:43.867Z,29.98
2023-02-11T00:51:10.866Z,26.13
2023-02-11T00:53:38.045Z,30.85
2023-02-11T00:56:05.725Z,33.20
2023-02-11T00:58:32.565Z,31.45
2023-02-11T01:00:59.183Z,28.05
2023-02-11T01:03:26.165Z,28.33
2023-02-11T01:05:53.104Z,30.83
2023-02-11T01:08:19.986Z,28.83
2023-02-11T01:11:01.480Z,31.27
2023-02-11T01:13:32.767Z,27.38
2023-02-11T01:15:59.932Z,26.27
2023-02-11T01:18:27.297Z,30.02
2023-02-11T01:20:54.426Z,27.42
2023-02-11T01:23:21.572Z,29.55
2023-02-11T01:25:48.981Z,28.27
2023-02-11T01:28:27.714Z,27.05
2023-02-11T01:30:55.830Z,26.90
2023-02-11T01:33:23.906Z,33.60
2023-02-11T01:35:50.872Z,29.10
2023-02-11T01:38:22.033Z,31.50
2023-02-11T01:40:57.791Z,28.73
2023-02-11T01:43:26.932Z,29.53
2023-02-11T01:46:00.467Z,31.77
2023-02-11T01:48:36.266Z,31.30
2023-02-11T01:51:26.979Z,30.63
2023-02-11T01:54:14.830Z,30.40
2023-02-11T01:57:07.617Z,30.73
2023-02-11T01:59:45.872Z,31.77
2023-02-11T02:02:17.750Z,31.77
2023-02-11T02:05:04.643Z,30.42
2023-02-11T02:07:47.162Z,32.88
2023-02-11T02:10:21.013Z,32.60
2023-02-11T02:12:47.549Z,31.95
2023-02-11T02:15:39.060Z,32.30
2023-02-11T02:19:16.281Z,28.83
2023-02-11T02:21:48.363Z,29.95
2023-02-11T02:24:56.540Z,32.00
2023-02-11T02:30:53.210Z,29.67
2023-02-11T02:33:49.924Z,29.05
2023-02-11T02:36:47.723Z,30.10
2023-02-11T02:39:33.753Z,27.83
2023-02-11T02:42:01.831Z,31.42
2023-02-11T02:44:29.919Z,28.13
2023-02-11T02:46:56.711Z,30.20
2023-02-11T02:49:23.538Z,33.42
2023-02-11T02:52:05.997Z,29.65
2023-02-11T02:55:11.455Z,28.50
2023-02-11T02:58:19.492Z,27.85
2023-02-11T03:01:34.628Z,30.38
2023-02-11T03:04:30.900Z,28.65
2023-02-11T03:07:20.747Z,28.20
2023-02-11T03:10:00.435Z,26.88
2023-02-11T03:12:32.404Z,29.70
2023-02-11T03:15:02.377Z,30.38
2023-02-11T03:17:34.940Z,32.10
2023-02-11T03:20:05.651Z,29.27
2023-02-11T03:22:49.995Z,29.48
2023-02-11T03:25:17.400Z,27.42
2023-02-11T03:27:54.770Z,26.15
2023-02-11T03:30:39.757Z,29.02
2023-02-11T03:33:23.136Z,29.38
2023-02-11T03:36:03.373Z,28.02
2023-02-11T03:38:41.166Z,28.42
2023-02-11T03:41:12.516Z,27.33
2023-02-11T03:43:47.279Z,32.08
2023-02-11T03:46:18.364Z,29.85
2023-02-11T03:48:52.373Z,31.85
2023-02-11T03:51:27.428Z,30.00
2023-02-11T03:53:59.502Z,31.00
2023-02-11T03:56:36.598Z,31.15
2023-02-11T03:59:03.208Z,28.42
2023-02-11T04:01:29.731Z,29.63
2023-02-11T04:03:56.229Z,28.85
2023-02-11T04:06:23.002Z,25.65
2023-02-11T04:08:49.505Z,31.83
2023-02-11T04:11:15.972Z,28.40
2023-02-11T04:13:42.421Z,32.50
2023-02-11T04:16:08.922Z,30.45
2023-02-11T04:18:35.373Z,29.58
2023-02-11T04:21:01.911Z,29.70
2023-02-11T04:23:28.470Z,31.98
2023-02-11T04:25:54.909Z,30.95
2023-02-11T04:28:21.755Z,29.67
2023-02-11T04:30:51.445Z,28.65
2023-02-11T04:33:18.245Z,29.27
2023-02-11T04:35:50.909Z,27.63
2023-02-11T04:38:17.881Z,27.45
2023-02-11T04:40:44.382Z,29.10
2023-02-11T04:43:10.910Z,28.00
2023-02-11T04:45:37.508Z,26.88
2023-02-11T04:48:04.509Z,28.48
2023-02-11T04:50:31.040Z,27.88
2023-02-11T04:52:57.575Z,27.33
2023-02-11T04:55:24.219Z,25.95
2023-02-11T04:57:50.741Z,28.13
2023-02-11T05:00:17.586Z,25.92
2023-02-11T05:02:44.198Z,25.98
2023-02-11T05:05:10.707Z,23.90
2023-02-11T05:07:42.494Z,26.23
2023-02-11T05:10:09.244Z,27.13
2023-02-11T05:12:35.680Z,27.13
2023-02-11T05:15:02.173Z,26.52
2023-02-11T05:17:28.636Z,24.77
2023-02-11T05:19:55.117Z,25.45
2023-02-11T05:22:22.093Z,26.58
2023-02-11T05:24:50.114Z,23.48
2023-02-11T05:27:16.683Z,22.65
2023-02-11T05:29:43.187Z,27.88
2023-02-11T05:32:09.651Z,28.10
2023-02-11T05:34:36.845Z,24.73
2023-02-11T05:37:03.520Z,28.10
2023-02-11T05:39:30.048Z,24.50
2023-02-11T05:41:56.610Z,26.85
2023-02-11T05:44:23.255Z,26.40
2023-02-11T05:46:49.764Z,24.17
2023-02-11T05:49:17.885Z,24.23
2023-02-11T05:51:44.385Z,24.45
2023-02-11T05:54:10.984Z,24.70
2023-02-11T05:56:37.539Z,28.58
2023-02-11T05:59:04.114Z,26.27
2023-02-11T06:01:30.693Z,27.67
2023-02-11T06:03:57.217Z,28.30
2023-02-11T06:06:25.165Z,24.02
2023-02-11T06:08:52.028Z,24.58
2023-02-11T06:11:18.799Z,24.85
2023-02-11T06:13:45.715Z,25.10
2023-02-11T06:16:12.276Z,24.60
2023-02-11T06:18:38.781Z,26.02
2023-02-11T06:21:14.881Z,26.83
2023-02-11T06:23:43.633Z,24.38
2023-02-11T06:26:19.904Z,30.23
2023-02-11T06:28:46.812Z,28.63
2023-02-11T06:31:14.342Z,30.08
2023-02-11T06:33:41.295Z,26.48
2023-02-11T06:36:20.554Z,30.02
2023-02-11T06:38:47.836Z,28.35
2023-02-11T06:41:17.214Z,28.75
2023-02-11T06:43:44.390Z,24.90
2023-02-11T06:46:11.006Z,40.75
2023-02-11T06:48:37.745Z,48.50
2023-02-11T06:51:07.872Z,38.03
2023-02-11T06:53:44.256Z,27.25
2023-02-11T06:56:15.196Z,27.48
2023-02-11T06:58:42.316Z,25.83
2023-02-11T07:01:13.222Z,26.10
2023-02-11T07:03:45.987Z,24.23
2023-02-11T07:06:17.994Z,27.30
2023-02-11T07:08:45.946Z,25.38
2023-02-11T07:11:19.417Z,26.65
2023-02-11T07:13:47.147Z,26.30
2023-02-11T07:16:19.837Z,25.80
2023-02-11T07:18:47.907Z,28.10
2023-02-11T07:21:18.933Z,25.48
2023-02-11T07:23:46.502Z,27.55
2023-02-11T07:26:16.876Z,26.13
2023-02-11T07:28:44.527Z,28.38
2023-02-11T07:31:18.480Z,26.73
2023-02-11T07:33:45.955Z,28.13
2023-02-11T07:36:15.320Z,30.92
2023-02-11T07:38:42.708Z,62.17
2023-02-11T07:41:13.987Z,29.52
2023-02-11T07:43:41.996Z,28.27
2023-02-11T07:46:13.509Z,25.45
2023-02-11T07:48:40.268Z,28.58
2023-02-11T07:51:17.770Z,27.13
2023-02-11T07:53:45.279Z,27.05
2023-02-11T07:56:14.137Z,43.97
2023-02-11T07:58:42.957Z,27.85
2023-02-11T08:01:14.312Z,25.63
2023-02-11T08:03:42.824Z,28.85
2023-02-11T08:06:14.847Z,23.70
2023-02-11T08:08:42.472Z,23.52
2023-02-11T08:11:15.389Z,25.35
2023-02-11T08:13:42.049Z,25.45
2023-02-11T08:16:09.616Z,25.73
2023-02-11T08:18:36.800Z,44.72
2023-02-11T08:21:08.880Z,31.23
2023-02-11T08:23:41.347Z,24.80
2023-02-11T08:26:14.548Z,70.47
2023-02-11T08:28:44.578Z,47.30
2023-02-11T08:31:17.266Z,24.80
2023-02-11T08:33:44.551Z,27.17
2023-02-11T08:36:20.806Z,25.13
2023-02-11T08:38:47.580Z,24.88
2023-02-11T08:41:15.061Z,21.92
2023-02-11T08:43:43.521Z,27.52
2023-02-11T08:46:15.705Z,27.05
2023-02-11T08:48:43.561Z,25.73
2023-02-11T08:51:15.586Z,21.83
2023-02-11T08:53:42.392Z,21.02
2023-02-11T08:56:13.358Z,21.60
2023-02-11T08:58:40.558Z,22.05
2023-02-11T09:01:18.286Z,22.23
2023-02-11T09:03:44.992Z,22.63
2023-02-11T09:06:13.909Z,22.38
2023-02-11T09:08:47.000Z,20.60
2023-02-11T09:11:13.860Z,19.92
2023-02-11T09:13:43.272Z,22.00
2023-02-11T09:16:18.519Z,20.55
2023-02-11T09:18:45.653Z,20.55
2023-02-11T09:21:13.383Z,20.38
2023-02-11T09:23:43.479Z,19.85
2023-02-11T09:26:16.053Z,19.15
2023-02-11T09:28:42.881Z,19.95
2023-02-11T09:31:17.434Z,21.83
2023-02-11T09:33:47.977Z,21.15
2023-02-11T09:36:21.795Z,25.05
2023-02-11T09:38:49.146Z,26.88
2023-02-11T09:41:54.336Z,26.35
2023-02-11T09:44:25.618Z,23.63
2023-02-11T09:47:30.515Z,25.02
2023-02-11T09:50:04.680Z,21.25
2023-02-11T09:52:44.964Z,52.00
2023-02-11T09:55:28.443Z,22.13
2023-02-11T09:57:56.735Z,22.02
2023-02-11T10:00:36.761Z,20.58
2023-02-11T10:03:30.878Z,22.15
2023-02-11T10:06:13.413Z,24.13
2023-02-11T10:08:50.996Z,22.95
2023-02-11T10:11:49.502Z,25.10
2023-02-11T10:14:21.745Z,21.30
2023-02-11T10:17:13.172Z,21.13
2023-02-11T10:20:03.574Z,20.88
2023-02-11T10:22:43.079Z,19.38
2023-02-11T10:25:33.547Z,20.02
2023-02-11T10:28:10.422Z,20.65
2023-02-11T10:30:59.739Z,20.80
2023-02-11T10:33:47.444Z,25.23
2023-02-11T10:36:17.717Z,68.75
2023-02-11T10:38:44.691Z,90.50
2023-02-11T10:41:22.549Z,81.35
2023-02-11T10:43:50.838Z,202.60
2023-02-11T10:46:31.879Z,43.50
2023-02-11T10:48:58.507Z,70.63
2023-02-11T10:51:33.577Z,46.55
2023-02-11T10:54:11.956Z,31.27
2023-02-11T10:56:52.807Z,22.13
2023-02-11T10:59:40.011Z,23.27
2023-02-11T11:05:23.690Z,19.42
2023-02-11T11:08:01.664Z,22.13
2023-02-11T11:10:43.178Z,22.95
2023-02-11T11:13:35.424Z,27.08
2023-02-11T11:16:29.383Z,21.92
2023-02-11T11:19:08.187Z,21.88
2023-02-11T11:21:42.105Z,25.25
2023-02-11T11:24:40.586Z,24.70
2023-02-11T11:27:16.630Z,24.10
2023-02-11T11:29:51.470Z,22.30
2023-02-11T11:32:27.959Z,23.48
2023-02-11T11:35:05.529Z,29.38
2023-02-11T11:37:36.403Z,81.65
2023-02-11T11:40:15.000Z,156.85
2023-02-11T11:42:42.021Z,407.30
2023-02-11T11:45:20.320Z,427.25
2023-02-11T11:48:03.093Z,83.03
2023-02-11T11:50:43.312Z,38.08
2023-02-11T11:53:40.676Z,26.90
2023-02-11T11:56:16.646Z,28.30
2023-02-11T11:58:46.645Z,29.58
2023-02-11T12:01:36.509Z,31.80
2023-02-11T12:04:38.439Z,25.10
2023-02-11T12:07:31.502Z,23.65
2023-02-11T12:10:18.645Z,24.10
2023-02-11T12:15:45.183Z,26.83
2023-02-11T12:18:44.338Z,25.67
2023-02-11T12:21:56.269Z,27.15
2023-02-11T12:25:09.606Z,27.85
2023-02-11T12:27:47.584Z,25.02
2023-02-11T12:30:20.613Z,24.88
2023-02-11T12:33:11.669Z,30.10
2023-02-11T12:36:06.806Z,33.85
2023-02-11T12:39:00.455Z,27.88
2023-02-11T12:42:25.278Z,34.30
2023-02-11T12:45:12.873Z,31.70
2023-02-11T12:48:13.382Z,25.55
2023-02-11T12:51:14.758Z,25.50
2023-02-11T12:53:58.755Z,41.20
2023-02-11T12:57:06.680Z,27.63
2023-02-11T12:59:49.808Z,29.40
2023-02-11T13:02:28.610Z,37.95
2023-02-11T13:05:04.018Z,41.83
2023-02-11T13:07:45.635Z,31.15
2023-02-11T13:10:17.888Z,42.88
2023-02-11T13:13:09.483Z,34.38
2023-02-11T13:15:37.091Z,32.80
2023-02-11T13:18:44.040Z,27.75
2023-02-11T13:21:21.702Z,40.65
2023-02-11T13:24:15.699Z,45.17
2023-02-11T13:27:00.195Z,50.67
2023-02-11T13:30:21.056Z,41.20
2023-02-11T13:32:56.564Z,45.25
2023-02-11T13:35:40.793Z,50.55
2023-02-11T13:38:25.501Z,40.10
2023-02-11T13:41:05.114Z,38.10
2023-02-11T13:43:36.340Z,36.35
2023-02-11T13:46:07.087Z,39.47
2023-02-11T13:48:40.025Z,43.60
2023-02-11T13:51:15.428Z,45.10
2023-02-11T13:53:57.378Z,34.88
2023-02-11T13:56:31.974Z,45.08
2023-02-11T13:59:06.377Z,44.67
2023-02-11T14:02:06.811Z,30.90
2023-02-11T14:04:52.644Z,31.42
2023-02-11T14:07:53.277Z,49.05
2023-02-11T14:10:41.352Z,57.70
2023-02-11T14:13:25.796Z,33.38
2023-02-11T14:16:17.084Z,44.38
2023-02-11T14:18:55.916Z,39.75
2023-02-11T14:21:32.232Z,34.85
2023-02-11T14:24:01.440Z,33.63
2023-02-11T14:26:47.195Z,30.98
2023-02-11T14:29:44.477Z,44.88
2023-02-11T14:32:43.860Z,52.47
2023-02-11T14:35:22.971Z,37.67
2023-02-11T14:38:15.756Z,52.20
2023-02-11T14:40:54.055Z,42.08
2023-02-11T14:43:29.538Z,39.45
2023-02-11T14:45:58.825Z,44.95
2023-02-11T14:48:37.932Z,45.63
2023-02-11T14:51:13.743Z,37.80
2023-02-11T14:53:48.959Z,44.00
2023-02-11T14:56:26.411Z,42.85
2023-02-11T14:58:55.266Z,66.00
2023-02-11T15:01:36.318Z,52.63
2023-02-11T15:04:06.348Z,36.15
2023-02-11T15:06:47.465Z,52.90
2023-02-11T15:09:19.856Z,40.45
2023-02-11T15:11:49.709Z,59.90
2023-02-11T15:14:26.409Z,34.08
2023-02-11T15:19:47.309Z,55.22
2023-02-11T15:22:29.272Z,35.60
2023-02-11T15:25:19.380Z,43.38
2023-02-11T15:27:48.762Z,51.33
2023-02-11T15:30:21.045Z,45.13
2023-02-11T15:32:57.898Z,51.97
2023-02-11T15:35:36.567Z,41.78
2023-02-11T15:38:04.767Z,59.92
2023-02-11T15:40:35.681Z,47.35
2023-02-11T15:43:07.584Z,43.13
2023-02-11T15:45:57.082Z,44.13
2023-02-11T15:48:37.140Z,49.38
2023-02-11T15:51:20.615Z,42.97
2023-02-11T15:53:56.666Z,36.47
2023-02-11T15:56:29.737Z,38.80
2023-02-11T15:59:00.627Z,43.42
2023-02-11T16:01:37.023Z,38.03
2023-02-11T16:04:05.458Z,39.15
2023-02-11T16:06:41.608Z,38.30
2023-02-11T16:09:11.069Z,35.95
2023-02-11T16:11:58.028Z,101.30
2023-02-11T16:14:31.421Z,94.50
2023-02-11T16:17:26.310Z,57.55
2023-02-11T16:19:54.150Z,67.95
2023-02-11T16:22:30.341Z,98.88
2023-02-11T16:24:59.708Z,71.93
2023-02-11T16:27:40.230Z,39.55
2023-02-11T16:30:40.365Z,44.63
2023-02-11T16:33:10.767Z,71.72
2023-02-11T16:35:37.568Z,49.90
2023-02-11T16:38:04.066Z,42.95
2023-02-11T16:40:30.608Z,42.70
2023-02-11T16:42:57.044Z,30.90
2023-02-11T16:45:23.577Z,33.58
2023-02-11T16:47:50.188Z,46.03
2023-02-11T16:50:24.177Z,46.17
2023-02-11T16:52:52.352Z,48.15
2023-02-11T16:55:25.280Z,47.20
2023-02-11T16:57:51.875Z,46.58
2023-02-11T17:00:19.055Z,37.05
2023-02-11T17:02:45.833Z,36.50
2023-02-11T17:05:20.382Z,32.35
2023-02-11T17:07:46.888Z,51.53
2023-02-11T17:10:20.572Z,36.63
2023-02-11T17:12:48.234Z,40.00
2023-02-11T17:15:14.861Z,36.15
2023-02-11T17:17:41.552Z,44.58
2023-02-11T17:20:11.078Z,49.50
2023-02-11T17:22:37.602Z,34.75
2023-02-11T17:25:04.276Z,40.53
2023-02-11T17:27:30.790Z,38.05
2023-02-11T17:29:57.297Z,39.90
2023-02-11T17:32:23.975Z,40.63
2023-02-11T17:34:53.634Z,42.13
2023-02-11T17:37:20.228Z,47.45
2023-02-11T17:39:49.142Z,47.47
2023-02-11T17:42:15.777Z,39.30
2023-02-11T17:44:44.241Z,44.58
2023-02-11T17:47:11.920Z,45.38
2023-02-11T17:49:39.660Z,53.50
2023-02-11T17:52:06.212Z,58.60
2023-02-11T17:54:32.728Z,51.30
2023-02-11T17:56:59.180Z,51.72
2023-02-11T17:59:26.452Z,61.70
2023-02-11T18:01:52.996Z,42.33
2023-02-11T18:04:20.328Z,57.63
2023-02-11T18:06:47.372Z,55.70
2023-02-11T18:09:13.923Z,50.20
2023-02-11T18:11:40.990Z,56.80
2023-02-11T18:14:08.526Z,39.22
2023-02-11T18:16:38.827Z,52.97
2023-02-11T18:19:07.512Z,42.08
2023-02-11T18:21:34.146Z,53.03
2023-02-11T18:24:07.364Z,44.90
2023-02-11T18:26:35.102Z,41.97
2023-02-11T18:29:03.732Z,49.10
2023-02-11T18:31:31.755Z,50.28
2023-02-11T18:33:58.371Z,41.97
2023-02-11T18:36:24.880Z,37.40
2023-02-11T18:38:53.238Z,45.95
2023-02-11T18:41:20.886Z,48.83
2023-02-11T18:43:47.405Z,39.83
2023-02-11T18:46:16.062Z,37.80
2023-02-11T18:48:44.749Z,48.78
2023-02-11T18:51:18.673Z,46.10
2023-02-11T18:53:45.673Z,47.33
2023-02-11T18:56:20.769Z,122.53
2023-02-11T18:58:49.285Z,175.68
2023-02-11T19:01:24.312Z,92.55
2023-02-11T19:03:51.482Z,99.25
2023-02-11T19:06:32.450Z,96.38
2023-02-11T19:09:04.021Z,107.30
2023-02-11T19:11:47.839Z,110.65
2023-02-11T19:14:27.575Z,106.97
2023-02-11T19:17:03.209Z,166.50
2023-02-11T19:19:33.764Z,89.55
2023-02-11T19:22:02.208Z,78.13
2023-02-11T19:24:30.156Z,78.32
2023-02-11T19:27:00.298Z,47.35
2023-02-11T19:29:28.396Z,53.05
2023-02-11T19:31:55.396Z,62.35
2023-02-11T19:34:22.335Z,58.47
2023-02-11T19:36:49.979Z,54.78
2023-02-11T19:39:18.332Z,48.70
2023-02-11T19:41:44.864Z,60.25
2023-02-11T19:44:14.325Z,49.30
2023-02-11T19:46:41.092Z,57.17
2023-02-11T19:49:09.884Z,74.35
2023-02-11T19:51:39.143Z,48.45
2023-02-11T19:54:07.414Z,85.45
2023-02-11T19:56:34.290Z,69.50
2023-02-11T19:59:03.069Z,87.20
2023-02-11T20:01:32.060Z,68.00
2023-02-11T20:03:58.673Z,64.45
2023-02-11T20:06:32.008Z,82.93
2023-02-11T20:09:13.449Z,50.30
2023-02-11T20:11:43.180Z,57.00
2023-02-11T20:14:13.019Z,66.65
2023-02-11T20:16:48.032Z,66.25
2023-02-11T20:19:21.872Z,60.45
2023-02-11T20:21:52.484Z,87.93
2023-02-11T20:24:20.159Z,81.43
2023-02-11T20:26:48.322Z,59.35
2023-02-11T20:29:18.888Z,52.05
2023-02-11T20:31:45.893Z,59.83
2023-02-11T20:34:12.597Z,55.13
2023-02-11T20:36:40.405Z,45.90
2023-02-11T20:39:08.034Z,65.90
2023-02-11T20:41:39.085Z,59.75
2023-02-11T20:44:10.742Z,52.63
2023-02-11T20:46:41.527Z,47.97
2023-02-11T20:49:12.031Z,53.38
2023-02-11T20:51:39.488Z,58.42
2023-02-11T20:54:07.567Z,49.75
2023-02-11T20:56:36.994Z,51.28
2023-02-11T20:59:05.703Z,55.00
2023-02-11T21:01:36.983Z,47.65
2023-02-11T21:04:14.377Z,44.97
2023-02-11T21:06:48.714Z,42.83
2023-02-11T21:09:20.034Z,45.13
2023-02-11T21:11:48.449Z,45.10
2023-02-11T21:14:15.347Z,47.75
2023-02-11T21:16:42.177Z,50.85
2023-02-11T21:19:08.738Z,40.50
2023-02-11T21:21:37.982Z,48.25
2023-02-11T21:24:06.896Z,51.13
2023-02-11T21:26:35.335Z,46.80
2023-02-11T21:29:07.346Z,48.45
2023-02-11T21:31:35.993Z,47.03
2023-02-11T21:34:03.196Z,49.28
2023-02-11T21:36:30.987Z,46.47
2023-02-11T21:38:57.843Z,45.67
2023-02-11T21:41:24.833Z,45.65
2023-02-11T21:43:52.407Z,51.50
2023-02-11T21:46:20.568Z,50.53
2023-02-11T21:48:47.954Z,48.92
2023-02-11T21:51:26.250Z,50.20
2023-02-11T21:54:01.505Z,45.70
2023-02-11T21:56:30.654Z,48.28
2023-02-11T21:58:59.605Z,48.28
2023-02-11T22:01:30.489Z,48.05
2023-02-11T22:03:58.440Z,56.22
2023-02-11T22:06:32.982Z,49.13
2023-02-11T22:09:05.888Z,52.13
2023-02-11T22:11:32.541Z,43.83
2023-02-11T22:13:59.294Z,45.20
2023-02-11T22:16:28.144Z,46.47
2023-02-11T22:18:58.433Z,50.88
2023-02-11T22:21:28.221Z,50.05
2023-02-11T22:23:55.822Z,51.25
2023-02-11T22:26:26.296Z,50.53
2023-02-11T22:28:53.817Z,49.22
2023-02-11T22:31:28.274Z,52.35
2023-02-11T22:33:55.275Z,48.08
2023-02-11T22:36:26.436Z,47.30
2023-02-11T22:38:59.435Z,47.85
2023-02-11T22:41:26.001Z,48.95
2023-02-11T22:43:52.487Z,49.13
2023-02-11T22:46:19.982Z,42.55
2023-02-11T22:48:48.498Z,45.75
2023-02-11T22:51:19.619Z,52.33
2023-02-11T22:54:07.122Z,54.88
2023-02-11T22:56:35.231Z,60.60
2023-02-11T22:59:06.229Z,54.10
2023-02-11T23:01:33.784Z,49.38
2023-02-11T23:04:04.321Z,48.50
2023-02-11T23:06:31.410Z,51.58
2023-02-11T23:08:57.987Z,49.72
2023-02-11T23:11:28.683Z,49.45
2023-02-11T23:13:55.577Z,46.13
2023-02-11T23:16:30.692Z,50.28
2023-02-11T23:19:01.128Z,51.63
2023-02-11T23:21:31.914Z,46.33
2023-02-11T23:24:10.923Z,49.28
2023-02-11T23:26:40.695Z,52.15
2023-02-11T23:29:07.724Z,48.28
2023-02-11T23:31:39.744Z,47.20
2023-02-11T23:34:08.241Z,48.92
2023-02-11T23:36:35.471Z,49.65
2023-02-11T23:39:02.820Z,47.97
2023-02-11T23:41:29.521Z,47.65
2023-02-11T23:43:58.961Z,43.20
2023-02-11T23:46:27.530Z,44.15
2023-02-11T23:48:54.424Z,49.50
2023-02-11T23:51:21.750Z,47.38
2023-02-11T23:53:53.658Z,49.28
2023-02-11T23:56:27.668Z,47.72
2023-02-11T23:58:57.735Z,46.58
